createdAt,value
2022-10-22T00:01:41.716Z,0.60
2022-10-22T00:04:09.935Z,0.60
2022-10-22T00:06:37.902Z,0.50
2022-10-22T00:09:07.570Z,0.75
2022-10-22T00:11:35.694Z,0.60
2022-10-22T00:14:04.013Z,0.95
2022-10-22T00:16:32.008Z,0.60
2022-10-22T00:19:00.106Z,0.50
2022-10-22T00:21:29.166Z,0.60
2022-10-22T00:23:57.810Z,0.60
2022-10-22T00:26:27.321Z,0.60
2022-10-22T00:28:55.603Z,0.63
2022-10-22T00:31:23.512Z,0.70
2022-10-22T00:33:51.952Z,0.60
2022-10-22T00:36:20.002Z,0.50
2022-10-22T00:38:48.344Z,0.60
2022-10-22T00:41:16.830Z,0.60
2022-10-22T00:43:58.389Z,0.55
2022-10-22T00:46:26.651Z,0.40
2022-10-22T00:48:56.817Z,0.55
2022-10-22T00:51:29.468Z,0.50
2022-10-22T00:54:02.334Z,0.50
2022-10-22T00:56:30.591Z,0.70
2022-10-22T00:59:03.497Z,0.70
2022-10-22T01:01:33.003Z,0.70
2022-10-22T01:04:01.731Z,0.70
2022-10-22T01:06:31.715Z,0.50
2022-10-22T01:09:11.363Z,0.50
2022-10-22T01:11:54.053Z,0.52
2022-10-22T01:14:34.263Z,0.60
2022-10-22T01:17:07.639Z,0.60
2022-10-22T01:19:57.650Z,0.50
2022-10-22T01:22:31.881Z,0.57
2022-10-22T01:25:09.964Z,0.52
2022-10-22T01:28:01.066Z,0.70
2022-10-22T01:30:30.996Z,0.80
2022-10-22T01:33:04.219Z,0.50
2022-10-22T01:35:36.740Z,0.85
2022-10-22T01:38:09.892Z,0.60
2022-10-22T01:40:38.529Z,0.65
2022-10-22T01:43:08.658Z,0.63
2022-10-22T01:45:41.246Z,0.50
2022-10-22T01:48:23.361Z,0.50
2022-10-22T01:51:08.230Z,0.70
2022-10-22T01:56:26.193Z,0.50
2022-10-22T01:58:59.637Z,0.60
2022-10-22T02:01:36.586Z,0.70
2022-10-22T02:04:12.754Z,0.50
2022-10-22T02:06:44.903Z,0.70
2022-10-22T02:09:16.303Z,0.60
2022-10-22T02:11:46.531Z,0.50
2022-10-22T02:14:16.863Z,0.60
2022-10-22T02:16:49.869Z,0.50
2022-10-22T02:19:25.534Z,0.68
2022-10-22T02:21:55.020Z,0.70
2022-10-22T02:24:23.895Z,0.77
2022-10-22T02:27:00.994Z,1.08
2022-10-22T02:29:34.214Z,0.57
2022-10-22T02:32:05.777Z,1.10
2022-10-22T02:34:34.583Z,0.50
2022-10-22T02:37:23.937Z,0.70
2022-10-22T02:39:53.070Z,0.70
2022-10-22T02:42:21.712Z,0.80
2022-10-22T02:44:49.990Z,0.73
2022-10-22T02:47:20.049Z,0.60
2022-10-22T02:49:48.649Z,0.57
2022-10-22T02:52:16.974Z,0.68
2022-10-22T02:54:44.970Z,0.60
2022-10-22T02:57:13.799Z,0.60
2022-10-22T02:59:42.596Z,0.60
2022-10-22T03:02:11.497Z,0.60
2022-10-22T03:04:41.265Z,0.60
2022-10-22T03:07:33.524Z,0.50
2022-10-22T03:10:01.630Z,0.98
2022-10-22T03:12:29.736Z,0.60
2022-10-22T03:14:57.846Z,0.60
2022-10-22T03:17:26.310Z,0.70
2022-10-22T03:19:56.012Z,0.70
2022-10-22T03:22:28.876Z,0.60
2022-10-22T03:25:23.724Z,1.15
2022-10-22T03:27:55.682Z,0.93
2022-10-22T03:30:23.987Z,0.65
2022-10-22T03:32:52.981Z,1.00
2022-10-22T03:35:23.019Z,0.60
2022-10-22T03:37:51.617Z,0.85
2022-10-22T03:40:20.522Z,0.50
2022-10-22T03:42:48.812Z,0.70
2022-10-22T03:45:17.009Z,0.60
2022-10-22T03:47:45.011Z,0.50
2022-10-22T03:50:13.319Z,0.80
2022-10-22T03:52:42.778Z,0.70
2022-10-22T03:55:11.465Z,0.70
2022-10-22T03:57:39.984Z,0.90
2022-10-22T04:00:10.232Z,0.70
2022-10-22T04:02:38.522Z,0.60
2022-10-22T04:05:07.515Z,0.60
2022-10-22T04:07:35.869Z,1.00
2022-10-22T04:10:05.773Z,0.77
2022-10-22T04:12:33.811Z,0.73
2022-10-22T04:15:01.828Z,0.70
2022-10-22T04:17:35.670Z,0.65
2022-10-22T04:20:04.799Z,0.60
2022-10-22T04:22:34.977Z,0.70
2022-10-22T04:25:03.068Z,0.50
2022-10-22T04:27:33.499Z,0.63
2022-10-22T04:30:02.167Z,1.02
2022-10-22T04:32:30.758Z,0.85
2022-10-22T04:34:58.984Z,0.70
2022-10-22T04:37:27.085Z,0.60
2022-10-22T04:39:57.967Z,0.70
2022-10-22T04:42:26.481Z,0.50
2022-10-22T04:44:55.802Z,0.70
2022-10-22T04:47:23.726Z,0.60
2022-10-22T04:49:51.688Z,0.60
2022-10-22T04:52:19.794Z,0.50
2022-10-22T04:54:48.490Z,0.65
2022-10-22T04:57:16.692Z,0.70
2022-10-22T04:59:44.863Z,0.90
2022-10-22T05:02:14.263Z,0.60
2022-10-22T05:04:44.737Z,0.60
2022-10-22T05:07:12.775Z,0.60
2022-10-22T05:09:41.109Z,0.60
2022-10-22T05:12:09.149Z,0.60
2022-10-22T05:14:40.248Z,0.57
2022-10-22T05:17:10.637Z,0.60
2022-10-22T05:19:40.326Z,0.60
2022-10-22T05:22:08.325Z,0.50
2022-10-22T05:24:37.252Z,0.50
2022-10-22T05:27:05.375Z,0.80
2022-10-22T05:29:33.662Z,0.68
2022-10-22T05:32:01.802Z,0.60
2022-10-22T05:34:29.827Z,0.68
2022-10-22T05:37:01.980Z,0.70
2022-10-22T05:39:37.032Z,0.73
2022-10-22T05:42:05.438Z,0.70
2022-10-22T05:44:48.001Z,0.70
2022-10-22T05:47:18.976Z,0.60
2022-10-22T05:49:57.360Z,0.70
2022-10-22T05:52:39.029Z,0.82
2022-10-22T05:55:10.116Z,0.70
2022-10-22T05:57:44.852Z,0.70
2022-10-22T06:00:20.044Z,0.60
2022-10-22T06:02:51.066Z,0.50
2022-10-22T06:05:19.170Z,0.60
2022-10-22T06:07:48.704Z,0.65
2022-10-22T06:10:19.180Z,0.60
2022-10-22T06:12:48.791Z,0.50
2022-10-22T06:15:20.240Z,1.10
2022-10-22T06:17:49.082Z,0.90
2022-10-22T06:20:17.481Z,0.70
2022-10-22T06:22:45.531Z,0.60
2022-10-22T06:25:15.262Z,0.85
2022-10-22T06:27:43.376Z,0.60
2022-10-22T06:30:12.222Z,0.60
2022-10-22T06:32:41.461Z,0.65
2022-10-22T06:35:10.189Z,0.70
2022-10-22T06:37:38.702Z,0.60
2022-10-22T06:40:08.096Z,0.60
2022-10-22T06:42:38.199Z,0.70
2022-10-22T06:45:07.810Z,0.90
2022-10-22T06:47:35.850Z,1.00
2022-10-22T06:50:03.981Z,0.80
2022-10-22T06:52:32.073Z,1.20
2022-10-22T06:55:00.240Z,1.23
2022-10-22T06:57:28.310Z,1.60
2022-10-22T06:59:57.966Z,1.05
2022-10-22T07:02:26.029Z,0.85
2022-10-22T07:04:54.124Z,0.82
2022-10-22T07:07:22.149Z,0.93
2022-10-22T07:09:51.437Z,0.90
2022-10-22T07:12:19.589Z,0.90
2022-10-22T07:14:47.530Z,0.90
2022-10-22T07:17:17.051Z,1.08
2022-10-22T07:19:48.444Z,0.90
2022-10-22T07:22:19.309Z,1.17
2022-10-22T07:24:47.329Z,0.90
2022-10-22T07:27:29.390Z,1.02
2022-10-22T07:30:04.637Z,0.70
2022-10-22T07:32:39.691Z,0.90
2022-10-22T07:35:08.528Z,1.50
2022-10-22T07:37:36.587Z,1.20
2022-10-22T07:40:04.897Z,1.00
2022-10-22T07:42:33.006Z,0.95
2022-10-22T07:45:01.078Z,0.80
2022-10-22T07:47:30.132Z,0.90
2022-10-22T07:49:59.556Z,1.00
2022-10-22T07:52:27.669Z,0.88
2022-10-22T07:54:56.853Z,0.90
2022-10-22T07:57:24.796Z,0.70
2022-10-22T07:59:53.131Z,0.80
2022-10-22T08:02:21.108Z,0.80
2022-10-22T08:04:49.055Z,0.90
2022-10-22T08:07:18.741Z,0.73
2022-10-22T08:09:46.809Z,0.88
2022-10-22T08:12:15.157Z,0.82
2022-10-22T08:14:43.093Z,0.60
2022-10-22T08:17:11.088Z,0.60
2022-10-22T08:19:43.553Z,0.80
2022-10-22T08:22:35.988Z,0.75
2022-10-22T08:25:04.324Z,0.80
2022-10-22T08:27:32.448Z,0.88
2022-10-22T08:30:00.371Z,0.60
2022-10-22T08:32:28.600Z,0.70
2022-10-22T08:34:56.558Z,0.90
2022-10-22T08:37:24.631Z,0.68
2022-10-22T08:39:54.038Z,0.88
2022-10-22T08:42:39.289Z,0.73
2022-10-22T08:45:14.735Z,0.80
2022-10-22T08:48:05.031Z,0.70
2022-10-22T08:50:38.487Z,1.00
2022-10-22T08:53:09.597Z,0.77
2022-10-22T08:55:39.800Z,0.80
2022-10-22T08:58:20.227Z,1.00
2022-10-22T09:00:56.735Z,0.85
2022-10-22T09:03:33.591Z,0.90
2022-10-22T09:06:09.548Z,0.70
2022-10-22T09:08:39.897Z,0.60
2022-10-22T09:11:21.173Z,0.90
2022-10-22T09:13:50.814Z,0.73
2022-10-22T09:16:20.796Z,0.70
2022-10-22T09:19:10.556Z,0.85
2022-10-22T09:21:47.270Z,0.70
2022-10-22T09:24:32.146Z,0.73
2022-10-22T09:27:11.158Z,1.00
2022-10-22T09:29:39.462Z,1.20
2022-10-22T09:32:07.973Z,0.70
2022-10-22T09:34:35.955Z,0.70
2022-10-22T09:37:07.972Z,0.80
2022-10-22T09:39:39.664Z,1.75
2022-10-22T09:42:09.546Z,1.10
2022-10-22T09:44:39.208Z,1.08
2022-10-22T09:47:07.860Z,0.90
2022-10-22T09:49:37.465Z,0.98
2022-10-22T09:52:25.798Z,0.70
2022-10-22T09:54:54.091Z,1.00
2022-10-22T09:57:27.413Z,0.98
2022-10-22T09:59:57.644Z,0.75
2022-10-22T10:02:44.721Z,0.70
2022-10-22T10:05:20.329Z,0.70
2022-10-22T10:07:48.556Z,0.73
2022-10-22T10:10:21.347Z,0.95
2022-10-22T10:12:59.592Z,1.05
2022-10-22T10:15:34.012Z,1.00
2022-10-22T10:18:13.527Z,0.80
2022-10-22T10:20:47.512Z,0.80
2022-10-22T10:23:29.042Z,1.10
2022-10-22T10:26:02.528Z,1.00
2022-10-22T10:28:42.860Z,0.70
2022-10-22T10:31:21.577Z,0.90
2022-10-22T10:34:01.089Z,0.93
2022-10-22T10:36:38.220Z,1.67
2022-10-22T10:39:11.218Z,0.70
2022-10-22T10:41:50.545Z,1.00
2022-10-22T10:44:48.746Z,1.67
2022-10-22T10:47:34.677Z,1.23
2022-10-22T10:50:19.101Z,1.00
2022-10-22T10:52:56.667Z,0.90
2022-10-22T10:55:31.853Z,1.02
2022-10-22T10:58:11.860Z,0.70
2022-10-22T11:00:51.956Z,1.00
2022-10-22T11:03:40.701Z,1.02
2022-10-22T11:06:12.973Z,1.33
2022-10-22T11:08:46.044Z,1.38
2022-10-22T11:11:19.615Z,1.10
2022-10-22T11:13:53.953Z,0.93
2022-10-22T11:16:30.276Z,0.80
2022-10-22T11:19:04.417Z,1.00
2022-10-22T11:21:40.235Z,1.20
2022-10-22T11:24:14.219Z,1.10
2022-10-22T11:26:46.983Z,0.90
2022-10-22T11:29:28.346Z,1.00
2022-10-22T11:32:03.000Z,1.08
2022-10-22T11:34:37.075Z,1.20
2022-10-22T11:37:07.973Z,1.30
2022-10-22T11:42:38.441Z,1.23
2022-10-22T11:45:28.670Z,2.27
2022-10-22T11:48:08.058Z,1.00
2022-10-22T11:50:48.288Z,1.00
2022-10-22T11:53:22.201Z,1.35
2022-10-22T11:55:52.619Z,1.37
2022-10-22T11:58:30.646Z,1.10
2022-10-22T12:01:18.514Z,0.90
2022-10-22T12:03:52.687Z,1.13
2022-10-22T12:06:24.351Z,1.42
2022-10-22T12:08:59.762Z,0.82
2022-10-22T12:11:29.914Z,1.30
2022-10-22T12:14:04.220Z,1.03
2022-10-22T12:16:56.554Z,1.20
2022-10-22T12:19:33.224Z,0.90
2022-10-22T12:22:12.589Z,1.10
2022-10-22T12:24:42.923Z,1.20
2022-10-22T12:27:22.429Z,1.00
2022-10-22T12:29:54.973Z,1.10
2022-10-22T12:32:23.380Z,1.10
2022-10-22T12:34:53.893Z,1.20
2022-10-22T12:37:21.939Z,1.10
2022-10-22T12:39:49.968Z,1.00
2022-10-22T12:42:19.202Z,1.23
2022-10-22T12:44:47.367Z,1.00
2022-10-22T12:47:18.141Z,1.30
2022-10-22T12:49:49.316Z,1.20
2022-10-22T12:52:21.446Z,0.77
2022-10-22T12:54:53.515Z,0.90
2022-10-22T12:57:24.265Z,1.10
2022-10-22T12:59:53.227Z,1.03
2022-10-22T13:02:24.518Z,1.20
2022-10-22T13:05:17.869Z,1.30
2022-10-22T13:07:50.851Z,0.97
2022-10-22T13:10:26.986Z,1.10
2022-10-22T13:12:57.767Z,1.37
2022-10-22T13:15:38.019Z,1.00
2022-10-22T13:18:15.987Z,1.00
2022-10-22T13:20:55.373Z,1.20
2022-10-22T13:23:26.707Z,1.40
2022-10-22T13:26:00.239Z,0.90
2022-10-22T13:28:29.641Z,1.00
2022-10-22T13:31:00.440Z,0.90
2022-10-22T13:33:33.457Z,1.20
2022-10-22T13:36:01.907Z,1.40
2022-10-22T13:38:31.709Z,1.20
2022-10-22T13:41:00.368Z,1.00
2022-10-22T13:43:28.360Z,1.23
2022-10-22T13:45:59.983Z,1.67
2022-10-22T13:48:30.981Z,0.93
2022-10-22T13:50:58.942Z,1.00
2022-10-22T13:53:28.813Z,1.10
2022-10-22T13:55:58.340Z,1.10
2022-10-22T13:58:26.593Z,1.13
2022-10-22T14:00:57.369Z,0.77
2022-10-22T14:03:29.183Z,1.20
2022-10-22T14:05:57.917Z,0.93
2022-10-22T14:08:27.893Z,0.97
2022-10-22T14:10:56.441Z,1.00
2022-10-22T14:13:26.637Z,1.13
2022-10-22T14:15:54.744Z,1.00
2022-10-22T14:18:26.658Z,1.00
2022-10-22T14:20:57.241Z,0.97
2022-10-22T14:23:27.855Z,1.20
2022-10-22T14:25:56.128Z,1.07
2022-10-22T14:28:25.598Z,0.97
2022-10-22T14:30:53.965Z,1.10
2022-10-22T14:33:28.984Z,0.97
2022-10-22T14:36:00.252Z,1.03
2022-10-22T14:38:28.899Z,1.20
2022-10-22T14:40:58.451Z,0.90
2022-10-22T14:43:30.980Z,1.27
2022-10-22T14:45:59.281Z,1.40
2022-10-22T14:48:27.253Z,1.10
2022-10-22T14:50:55.976Z,0.90
2022-10-22T14:53:23.983Z,1.23
2022-10-22T14:55:55.473Z,1.37
2022-10-22T14:58:23.390Z,1.23
2022-10-22T15:00:53.302Z,1.20
2022-10-22T15:03:21.444Z,1.33
2022-10-22T15:05:53.881Z,1.50
2022-10-22T15:08:21.931Z,1.17
2022-10-22T15:10:59.110Z,1.03
2022-10-22T15:13:27.969Z,1.20
2022-10-22T15:15:57.495Z,1.50
2022-10-22T15:18:25.846Z,1.30
2022-10-22T15:20:58.730Z,1.40
2022-10-22T15:23:26.941Z,1.40
2022-10-22T15:25:55.064Z,1.10
2022-10-22T15:28:25.900Z,1.23
2022-10-22T15:30:55.348Z,1.57
2022-10-22T15:33:25.588Z,0.97
2022-10-22T15:35:53.552Z,1.20
2022-10-22T15:38:22.308Z,1.07
2022-10-22T15:40:50.465Z,1.13
2022-10-22T15:43:18.784Z,1.50
2022-10-22T15:46:05.789Z,1.10
2022-10-22T15:48:35.202Z,1.30
2022-10-22T15:51:09.187Z,1.60
2022-10-22T15:53:37.555Z,1.50
2022-10-22T15:56:06.184Z,1.42
2022-10-22T15:58:34.619Z,1.45
2022-10-22T16:01:07.208Z,1.38
2022-10-22T16:03:36.979Z,1.30
2022-10-22T16:06:07.098Z,1.35
2022-10-22T16:08:35.403Z,1.15
2022-10-22T16:11:03.365Z,1.42
2022-10-22T16:13:31.755Z,1.10
2022-10-22T16:16:15.018Z,1.20
2022-10-22T16:18:44.447Z,1.10
2022-10-22T16:21:16.712Z,1.60
2022-10-22T16:23:44.947Z,1.17
2022-10-22T16:26:14.728Z,1.20
2022-10-22T16:28:43.805Z,0.90
2022-10-22T16:31:13.548Z,1.60
2022-10-22T16:33:46.477Z,1.10
2022-10-22T16:36:21.160Z,1.83
2022-10-22T16:38:50.273Z,1.30
2022-10-22T16:41:20.672Z,1.67
2022-10-22T16:43:50.286Z,1.38
2022-10-22T16:46:19.848Z,2.38
2022-10-22T16:48:48.329Z,2.15
2022-10-22T16:51:19.786Z,1.67
2022-10-22T16:53:48.107Z,1.75
2022-10-22T16:56:17.437Z,2.17
2022-10-22T16:58:52.749Z,2.70
2022-10-22T17:01:22.863Z,2.08
2022-10-22T17:03:50.850Z,2.72
2022-10-22T17:06:20.277Z,1.80
2022-10-22T17:08:48.492Z,1.90
2022-10-22T17:11:19.292Z,2.15
2022-10-22T17:13:49.726Z,2.13
2022-10-22T17:16:19.302Z,1.52
2022-10-22T17:18:48.651Z,2.10
2022-10-22T17:21:17.702Z,2.15
2022-10-22T17:23:47.550Z,2.00
2022-10-22T17:26:18.329Z,1.85
2022-10-22T17:28:46.493Z,1.60
2022-10-22T17:31:18.628Z,1.90
2022-10-22T17:33:47.002Z,1.77
2022-10-22T17:36:15.327Z,1.95
2022-10-22T17:38:45.488Z,2.30
2022-10-22T17:41:18.653Z,1.70
2022-10-22T17:43:47.089Z,2.15
2022-10-22T17:46:20.715Z,2.10
2022-10-22T17:48:51.255Z,1.40
2022-10-22T17:51:20.456Z,2.03
2022-10-22T17:53:50.276Z,3.95
2022-10-22T17:56:21.944Z,1.73
2022-10-22T17:58:50.630Z,1.48
2022-10-22T18:01:21.683Z,2.00
2022-10-22T18:03:55.157Z,1.50
2022-10-22T18:06:23.511Z,2.85
2022-10-22T18:08:51.823Z,1.75
2022-10-22T18:11:24.114Z,1.65
2022-10-22T18:13:52.819Z,2.00
2022-10-22T18:16:21.245Z,1.50
2022-10-22T18:18:51.442Z,2.15
2022-10-22T18:21:19.719Z,2.60
2022-10-22T18:23:48.118Z,2.33
2022-10-22T18:26:19.338Z,2.05
2022-10-22T18:28:51.050Z,1.50
2022-10-22T18:31:22.012Z,1.67
2022-10-22T18:33:50.593Z,1.55
2022-10-22T18:36:21.849Z,2.22
2022-10-22T18:38:50.749Z,2.03
2022-10-22T18:41:19.131Z,1.90
2022-10-22T18:43:52.334Z,2.05
2022-10-22T18:46:20.358Z,2.00
2022-10-22T18:48:48.663Z,2.45
2022-10-22T18:51:17.231Z,1.98
2022-10-22T18:53:58.909Z,2.05
2022-10-22T18:56:33.871Z,2.05
2022-10-22T18:59:03.178Z,1.67
2022-10-22T19:01:31.358Z,1.73
2022-10-22T19:03:59.651Z,1.60
2022-10-22T19:06:34.550Z,2.15
2022-10-22T19:09:06.046Z,2.45
2022-10-22T19:11:34.259Z,2.38
2022-10-22T19:14:03.980Z,2.17
2022-10-22T19:16:32.096Z,1.98
2022-10-22T19:19:02.663Z,2.65
2022-10-22T19:21:30.870Z,2.30
2022-10-22T19:24:00.011Z,2.35
2022-10-22T19:26:29.506Z,1.88
2022-10-22T19:28:59.407Z,2.13
2022-10-22T19:31:44.319Z,2.40
2022-10-22T19:34:12.417Z,2.10
2022-10-22T19:36:40.391Z,2.13
2022-10-22T19:39:08.997Z,2.20
2022-10-22T19:41:37.264Z,1.98
2022-10-22T19:44:05.738Z,2.08
2022-10-22T19:46:33.713Z,2.00
2022-10-22T19:49:03.740Z,2.20
2022-10-22T19:51:34.506Z,2.55
2022-10-22T19:54:04.632Z,2.50
2022-10-22T19:56:34.014Z,2.10
2022-10-22T19:59:02.199Z,1.83
2022-10-22T20:01:31.763Z,2.28
2022-10-22T20:04:01.322Z,2.20
2022-10-22T20:06:31.454Z,2.60
2022-10-22T20:08:59.609Z,2.17
2022-10-22T20:11:29.399Z,2.25
2022-10-22T20:13:58.325Z,2.63
2022-10-22T20:16:29.997Z,2.25
2022-10-22T20:19:01.514Z,2.28
2022-10-22T20:21:31.948Z,2.55
2022-10-22T20:24:00.277Z,3.38
2022-10-22T20:26:29.348Z,2.30
2022-10-22T20:28:59.078Z,2.38
2022-10-22T20:31:29.338Z,2.67
2022-10-22T20:33:58.867Z,2.38
2022-10-22T20:36:28.071Z,2.20
2022-10-22T20:39:01.160Z,2.00
2022-10-22T20:41:29.249Z,2.90
2022-10-22T20:43:57.877Z,2.40
2022-10-22T20:46:29.098Z,2.75
2022-10-22T20:49:00.619Z,1.90
2022-10-22T20:51:28.751Z,2.15
2022-10-22T20:53:58.625Z,2.55
2022-10-22T20:56:27.641Z,2.35
2022-10-22T20:59:04.356Z,2.20
2022-10-22T21:01:34.391Z,2.42
2022-10-22T21:04:02.456Z,4.18
2022-10-22T21:06:30.991Z,2.85
2022-10-22T21:09:09.306Z,2.55
2022-10-22T21:11:38.538Z,2.05
2022-10-22T21:14:07.306Z,3.08
2022-10-22T21:16:35.402Z,2.35
2022-10-22T21:19:03.669Z,2.53
2022-10-22T21:21:31.707Z,2.42
2022-10-22T21:23:59.785Z,2.50
2022-10-22T21:26:29.240Z,2.72
2022-10-22T21:28:57.259Z,2.63
2022-10-22T21:31:26.214Z,2.90
2022-10-22T21:33:55.103Z,2.58
2022-10-22T21:36:23.985Z,2.55
2022-10-22T21:38:52.723Z,3.03
2022-10-22T21:41:22.407Z,2.38
2022-10-22T21:43:52.336Z,2.40
2022-10-22T21:46:21.880Z,3.00
2022-10-22T21:48:54.193Z,2.85
2022-10-22T21:51:23.395Z,2.90
2022-10-22T21:56:22.890Z,2.40
2022-10-22T21:58:52.571Z,2.80
2022-10-22T22:01:20.712Z,2.75
2022-10-22T22:03:50.253Z,2.83
2022-10-22T22:06:21.432Z,3.13
2022-10-22T22:08:51.120Z,2.95
2022-10-22T22:11:20.834Z,2.30
2022-10-22T22:13:49.228Z,2.50
2022-10-22T22:16:27.163Z,2.83
2022-10-22T22:18:57.262Z,2.72
2022-10-22T22:21:25.942Z,2.67
2022-10-22T22:24:14.373Z,3.28
2022-10-22T22:26:42.355Z,2.97
2022-10-22T22:29:11.974Z,2.85
2022-10-22T22:31:43.044Z,3.33
2022-10-22T22:34:13.532Z,2.70
2022-10-22T22:36:43.170Z,2.95
2022-10-22T22:39:13.656Z,2.80
2022-10-22T22:41:42.103Z,2.60
2022-10-22T22:44:09.996Z,2.72
2022-10-22T22:46:38.075Z,3.03
2022-10-22T22:49:07.832Z,2.85
2022-10-22T22:51:36.030Z,3.65
2022-10-22T22:54:05.018Z,3.03
2022-10-22T22:56:34.935Z,2.60
2022-10-22T22:59:03.152Z,3.70
2022-10-22T23:01:32.715Z,2.60
2022-10-22T23:04:02.878Z,2.90
2022-10-22T23:06:35.856Z,4.85
2022-10-22T23:09:05.156Z,2.90
2022-10-22T23:11:33.103Z,3.13
2022-10-22T23:14:04.171Z,2.95
2022-10-22T23:16:36.657Z,3.00
2022-10-22T23:19:05.887Z,3.08
2022-10-22T23:21:38.365Z,2.75
2022-10-22T23:24:09.538Z,2.95
2022-10-22T23:26:39.883Z,2.63
2022-10-22T23:29:10.074Z,3.42
2022-10-22T23:31:38.732Z,3.60
2022-10-22T23:34:07.430Z,3.55
2022-10-22T23:36:38.176Z,3.00
2022-10-22T23:39:06.638Z,3.22
2022-10-22T23:41:34.936Z,3.80
2022-10-22T23:44:03.139Z,2.72
2022-10-22T23:46:31.297Z,3.45
2022-10-22T23:48:59.372Z,3.15
2022-10-22T23:51:27.405Z,3.47
2022-10-22T23:53:58.206Z,2.63
2022-10-22T23:56:27.463Z,2.85
2022-10-22T23:58:56.233Z,3.15
